createdAt,value
2017-09-04T00:01:23.992Z,84.90
2017-09-04T00:03:51.540Z,83.90
2017-09-04T00:06:19.092Z,84.00
2017-09-04T00:08:46.674Z,84.40
2017-09-04T00:11:14.217Z,84.90
2017-09-04T00:13:41.795Z,84.80
2017-09-04T00:16:09.370Z,85.50
2017-09-04T00:18:36.927Z,85.10
2017-09-04T00:21:04.483Z,85.40
2017-09-04T00:23:32.028Z,85.60
2017-09-04T00:25:59.610Z,84.60
2017-09-04T00:28:27.142Z,84.20
2017-09-04T00:30:54.691Z,84.50
2017-09-04T00:33:22.263Z,84.50
2017-09-04T00:35:49.809Z,85.00
2017-09-04T00:38:17.433Z,84.40
2017-09-04T00:40:45.744Z,83.90
2017-09-04T00:43:13.282Z,83.80
2017-09-04T00:45:40.852Z,84.80
2017-09-04T00:48:08.397Z,84.70
2017-09-04T00:50:36.002Z,83.80
2017-09-04T00:53:03.558Z,83.90
2017-09-04T00:55:31.121Z,83.20
2017-09-04T00:57:58.704Z,84.70
2017-09-04T01:00:26.267Z,84.00
2017-09-04T01:02:53.844Z,83.90
2017-09-04T01:05:21.413Z,84.70
2017-09-04T01:07:48.985Z,85.10
2017-09-04T01:10:16.566Z,85.00
2017-09-04T01:12:44.137Z,85.90
2017-09-04T01:15:11.732Z,84.70
2017-09-04T01:17:39.281Z,84.50
2017-09-04T01:20:06.836Z,84.20
2017-09-04T01:22:34.414Z,83.70
2017-09-04T01:25:01.961Z,83.40
2017-09-04T01:27:29.546Z,83.90
2017-09-04T01:29:57.094Z,83.60
2017-09-04T01:32:24.674Z,84.00
2017-09-04T01:34:53.019Z,84.80
2017-09-04T01:37:20.566Z,84.80
2017-09-04T01:39:48.144Z,84.70
2017-09-04T01:42:15.693Z,84.70
2017-09-04T01:44:43.245Z,84.70
2017-09-04T01:47:10.826Z,85.70
2017-09-04T01:49:38.374Z,85.00
2017-09-04T01:52:05.945Z,85.20
2017-09-04T01:54:33.497Z,85.10
2017-09-04T01:57:01.052Z,84.90
2017-09-04T01:59:28.629Z,84.10
2017-09-04T02:01:56.194Z,84.40
2017-09-04T02:04:23.781Z,84.70
2017-09-04T02:06:51.329Z,85.60
2017-09-04T02:09:18.874Z,84.60
2017-09-04T02:11:47.196Z,84.90
2017-09-04T02:14:14.741Z,84.90
2017-09-04T02:16:42.308Z,84.90
2017-09-04T02:19:09.853Z,85.80
2017-09-04T02:21:37.400Z,85.80
2017-09-04T02:24:04.969Z,84.90
2017-09-04T02:26:32.517Z,85.60
2017-09-04T02:29:00.871Z,83.50
2017-09-04T02:31:28.431Z,83.50
2017-09-04T02:33:55.973Z,84.00
2017-09-04T02:36:23.541Z,84.50
2017-09-04T02:38:51.089Z,84.70
2017-09-04T02:41:18.660Z,85.70
2017-09-04T02:43:46.236Z,86.90
2017-09-04T02:46:13.801Z,85.80
2017-09-04T02:48:41.368Z,86.10
2017-09-04T02:51:08.917Z,84.90
2017-09-04T02:53:36.479Z,86.00
2017-09-04T02:56:04.039Z,85.10
2017-09-04T02:58:31.583Z,85.70
2017-09-04T03:00:59.168Z,86.80
2017-09-04T03:03:26.700Z,85.90
2017-09-04T03:05:54.272Z,86.40
2017-09-04T03:08:21.821Z,86.20
2017-09-04T03:10:49.389Z,86.70
2017-09-04T03:13:16.919Z,86.70
2017-09-04T03:15:44.493Z,86.60
2017-09-04T03:18:12.037Z,86.30
2017-09-04T03:20:39.587Z,86.10
2017-09-04T03:23:07.173Z,86.40
2017-09-04T03:25:34.732Z,86.00
2017-09-04T03:28:02.326Z,86.00
2017-09-04T03:30:29.900Z,86.00
2017-09-04T03:32:57.497Z,86.10
2017-09-04T03:35:25.069Z,85.80
2017-09-04T03:37:52.694Z,86.00
2017-09-04T03:40:20.278Z,86.20
2017-09-04T03:42:47.880Z,85.50
2017-09-04T03:45:15.471Z,86.70
2017-09-04T03:47:43.053Z,86.10
2017-09-04T03:50:10.664Z,85.70
2017-09-04T03:52:38.263Z,85.30
2017-09-04T03:55:05.865Z,85.10
2017-09-04T03:57:33.441Z,85.50
2017-09-04T04:00:01.051Z,85.30
2017-09-04T04:02:28.635Z,86.40
2017-09-04T04:04:56.212Z,85.50
2017-09-04T04:07:23.822Z,86.00
2017-09-04T04:09:52.204Z,86.20
2017-09-04T04:12:19.813Z,86.10
2017-09-04T04:14:47.387Z,85.80
2017-09-04T04:17:14.956Z,85.10
2017-09-04T04:19:42.499Z,86.50
2017-09-04T04:22:10.076Z,86.40
2017-09-04T04:24:37.619Z,87.40
2017-09-04T04:27:05.197Z,86.50
2017-09-04T04:29:32.739Z,85.70
2017-09-04T04:32:00.298Z,85.60
2017-09-04T04:34:27.873Z,85.50
2017-09-04T04:36:55.406Z,85.60
2017-09-04T04:39:22.980Z,85.80
2017-09-04T04:41:50.687Z,86.20
2017-09-04T04:44:18.270Z,85.10
2017-09-04T04:46:45.835Z,84.90
2017-09-04T04:49:13.410Z,85.70
2017-09-04T04:51:40.961Z,85.30
2017-09-04T04:54:08.516Z,86.20
2017-09-04T04:56:36.088Z,86.30
2017-09-04T04:59:03.641Z,86.50
2017-09-04T05:01:31.222Z,86.20
2017-09-04T05:03:58.777Z,85.70
2017-09-04T05:06:26.363Z,86.80
2017-09-04T05:08:53.907Z,87.00
2017-09-04T05:11:21.543Z,87.20
2017-09-04T05:13:49.100Z,86.00
2017-09-04T05:16:16.688Z,86.80
2017-09-04T05:18:44.240Z,87.60
2017-09-04T05:21:11.812Z,87.30
2017-09-04T05:23:39.396Z,87.10
2017-09-04T05:26:06.955Z,87.50
2017-09-04T05:28:34.539Z,88.60
2017-09-04T05:31:02.134Z,89.70
2017-09-04T05:33:29.709Z,90.40
2017-09-04T05:35:57.401Z,90.40
2017-09-04T05:38:24.987Z,90.50
2017-09-04T05:40:52.532Z,91.00
2017-09-04T05:43:20.098Z,91.20
2017-09-04T05:45:47.679Z,91.30
2017-09-04T05:48:15.229Z,91.30
2017-09-04T05:50:42.817Z,91.40
2017-09-04T05:53:10.364Z,91.30
2017-09-04T05:55:38.698Z,91.70
2017-09-04T05:58:06.259Z,91.70
2017-09-04T06:00:33.833Z,92.00
2017-09-04T06:03:01.381Z,92.10
2017-09-04T06:05:28.969Z,91.90
2017-09-04T06:07:56.517Z,91.00
2017-09-04T06:10:24.070Z,91.20
2017-09-04T06:12:51.650Z,89.10
2017-09-04T06:15:19.192Z,89.60
2017-09-04T06:17:46.733Z,87.60
2017-09-04T06:20:14.318Z,88.70
2017-09-04T06:22:41.876Z,86.60
2017-09-04T06:25:09.429Z,87.70
2017-09-04T06:27:37.004Z,85.60
2017-09-04T06:30:04.578Z,83.20
2017-09-04T06:32:32.138Z,84.40
2017-09-04T06:34:59.709Z,83.90
2017-09-04T06:37:27.268Z,82.10
2017-09-04T06:39:54.818Z,81.40
2017-09-04T06:42:22.402Z,80.00
2017-09-04T06:44:49.967Z,78.40
2017-09-04T06:47:17.524Z,77.90
2017-09-04T06:49:45.102Z,77.50
2017-09-04T06:52:12.643Z,76.40
2017-09-04T06:54:40.202Z,75.20
2017-09-04T06:57:07.793Z,75.30
2017-09-04T06:59:35.363Z,75.00
2017-09-04T07:02:02.908Z,74.70
2017-09-04T07:04:30.493Z,73.80
2017-09-04T07:06:58.064Z,73.30
2017-09-04T07:09:25.630Z,73.30
2017-09-04T07:11:53.230Z,72.40
2017-09-04T07:14:20.794Z,72.40
2017-09-04T07:16:48.352Z,71.90
2017-09-04T07:19:15.951Z,70.30
2017-09-04T07:21:43.509Z,72.40
2017-09-04T07:24:11.062Z,71.10
2017-09-04T07:26:38.654Z,71.70
2017-09-04T07:29:06.195Z,72.20
2017-09-04T07:31:33.739Z,72.90
2017-09-04T07:34:01.318Z,70.50
2017-09-04T07:36:28.859Z,71.00
2017-09-04T07:38:56.410Z,68.00
2017-09-04T07:41:24.006Z,68.30
2017-09-04T07:43:51.570Z,70.20
2017-09-04T07:46:19.127Z,70.70
2017-09-04T07:48:46.709Z,70.70
2017-09-04T07:51:14.286Z,71.20
2017-09-04T07:53:41.833Z,69.80
2017-09-04T07:56:09.415Z,69.40
2017-09-04T07:58:36.965Z,70.20
2017-09-04T08:01:04.542Z,69.10
2017-09-04T08:03:32.124Z,69.60
2017-09-04T08:05:59.664Z,71.00
2017-09-04T08:08:27.233Z,69.50
2017-09-04T08:10:54.813Z,71.30
2017-09-04T08:13:22.382Z,71.60
2017-09-04T08:15:49.937Z,72.20
2017-09-04T08:18:17.523Z,73.70
2017-09-04T08:20:45.093Z,75.00
2017-09-04T08:23:12.663Z,75.90
2017-09-04T08:25:40.271Z,76.60
2017-09-04T08:28:07.830Z,74.20
2017-09-04T08:30:35.385Z,74.00
2017-09-04T08:33:02.973Z,69.80
2017-09-04T08:35:30.533Z,71.70
2017-09-04T08:37:58.864Z,68.60
2017-09-04T08:40:26.458Z,68.60
2017-09-04T08:42:54.020Z,67.60
2017-09-04T08:45:21.593Z,68.60
2017-09-04T08:47:49.947Z,64.10
2017-09-04T08:50:17.497Z,64.00
2017-09-04T08:52:45.053Z,62.70
2017-09-04T08:55:12.652Z,65.10
2017-09-04T08:57:40.199Z,63.30
2017-09-04T09:00:07.783Z,63.50
2017-09-04T09:02:35.423Z,60.20
2017-09-04T09:05:02.981Z,63.20
2017-09-04T09:07:30.551Z,62.80
2017-09-04T09:09:58.150Z,64.40
2017-09-04T09:12:25.705Z,62.70
2017-09-04T09:14:53.283Z,61.80
2017-09-04T09:17:20.860Z,61.60
2017-09-04T09:19:48.421Z,63.10
2017-09-04T09:22:16.003Z,61.80
2017-09-04T09:24:43.625Z,64.30
2017-09-04T09:27:11.219Z,64.30
2017-09-04T09:29:38.795Z,68.40
2017-09-04T09:32:06.417Z,64.20
2017-09-04T09:34:33.969Z,61.20
2017-09-04T09:37:01.529Z,62.60
2017-09-04T09:39:29.123Z,62.30
2017-09-04T09:41:56.695Z,60.90
2017-09-04T09:44:24.254Z,59.80
2017-09-04T09:46:52.610Z,67.70
2017-09-04T09:49:20.207Z,67.70
2017-09-04T09:51:47.891Z,63.90
2017-09-04T09:54:15.490Z,59.80
2017-09-04T09:56:43.063Z,60.00
2017-09-04T09:59:10.629Z,58.20
2017-09-04T10:01:38.244Z,60.30
2017-09-04T10:04:05.813Z,59.00
2017-09-04T10:06:33.393Z,58.90
2017-09-04T10:09:00.988Z,60.20
2017-09-04T10:11:28.569Z,63.00
2017-09-04T10:13:56.166Z,62.10
2017-09-04T10:16:23.759Z,65.50
2017-09-04T10:18:51.349Z,66.10
2017-09-04T10:21:18.925Z,65.80
2017-09-04T10:23:46.540Z,63.60
2017-09-04T10:26:14.103Z,60.10
2017-09-04T10:28:41.722Z,60.80
2017-09-04T10:31:09.338Z,61.50
2017-09-04T10:33:36.913Z,66.40
2017-09-04T10:36:04.515Z,65.40
2017-09-04T10:38:32.099Z,62.70
2017-09-04T10:40:59.678Z,67.90
2017-09-04T10:43:27.236Z,63.90
2017-09-04T10:45:54.836Z,62.30
2017-09-04T10:48:22.409Z,66.30
2017-09-04T10:50:49.992Z,60.70
2017-09-04T10:53:17.600Z,58.30
2017-09-04T10:55:45.150Z,61.50
2017-09-04T10:58:12.695Z,61.70
2017-09-04T11:00:40.298Z,54.80
2017-09-04T11:03:07.905Z,59.80
2017-09-04T11:05:35.453Z,61.50
2017-09-04T11:08:03.041Z,58.70
2017-09-04T11:10:30.618Z,61.80
2017-09-04T11:12:58.194Z,59.00
2017-09-04T11:15:25.801Z,57.50
2017-09-04T11:17:53.373Z,62.50
2017-09-04T11:20:20.943Z,55.50
2017-09-04T11:22:48.543Z,57.30
2017-09-04T11:25:16.123Z,55.90
2017-09-04T11:27:43.690Z,56.50
2017-09-04T11:30:11.290Z,61.20
2017-09-04T11:32:38.866Z,59.40
2017-09-04T11:35:06.440Z,57.70
2017-09-04T11:37:34.034Z,50.80
2017-09-04T11:40:01.591Z,55.20
2017-09-04T11:42:29.917Z,59.60
2017-09-04T11:44:57.501Z,59.90
2017-09-04T11:47:25.063Z,57.60
2017-09-04T11:49:52.613Z,53.80
2017-09-04T11:52:20.194Z,51.10
2017-09-04T11:54:47.775Z,53.80
2017-09-04T11:57:15.325Z,58.10
2017-09-04T11:59:42.891Z,55.20
2017-09-04T12:02:10.462Z,52.70
2017-09-04T12:04:38.004Z,57.70
2017-09-04T12:07:05.599Z,57.60
2017-09-04T12:09:33.167Z,54.60
2017-09-04T12:12:00.735Z,52.10
2017-09-04T12:14:28.318Z,54.70
2017-09-04T12:16:55.876Z,49.40
2017-09-04T12:19:23.445Z,49.20
2017-09-04T12:21:51.038Z,46.50
2017-09-04T12:24:18.581Z,54.00
2017-09-04T12:26:46.164Z,56.60
2017-09-04T12:29:13.741Z,53.20
2017-09-04T12:31:41.331Z,53.20
2017-09-04T12:34:08.900Z,58.20
2017-09-04T12:36:36.507Z,57.50
2017-09-04T12:39:04.122Z,54.50
2017-09-04T12:41:31.695Z,54.60
2017-09-04T12:43:59.318Z,58.60
2017-09-04T12:46:26.907Z,61.50
2017-09-04T12:48:54.509Z,57.40
2017-09-04T12:51:22.136Z,57.10
2017-09-04T12:53:49.707Z,59.00
2017-09-04T12:56:17.291Z,58.40
2017-09-04T12:58:44.894Z,58.10
2017-09-04T13:01:12.448Z,61.70
2017-09-04T13:03:40.012Z,52.70
2017-09-04T13:06:07.585Z,58.10
2017-09-04T13:08:35.152Z,59.30
2017-09-04T13:11:15.362Z,54.90
2017-09-04T13:16:54.328Z,54.00
2017-09-04T13:19:27.458Z,58.10
2017-09-04T13:22:01.409Z,54.50
2017-09-04T13:24:34.540Z,54.40
2017-09-04T13:27:07.720Z,55.20
2017-09-04T13:32:41.654Z,56.60
2017-09-04T13:35:14.833Z,57.90
2017-09-04T13:37:47.962Z,53.40
2017-09-04T13:43:23.794Z,56.10
2017-09-04T13:45:57.151Z,56.50
2017-09-04T13:48:30.492Z,57.50
2017-09-04T13:51:03.638Z,55.90
2017-09-04T13:53:36.857Z,55.70
2017-09-04T13:56:09.990Z,55.70
2017-09-04T14:01:47.066Z,52.20
2017-09-04T14:04:20.384Z,53.40
2017-09-04T14:06:53.946Z,48.70
2017-09-04T14:12:48.957Z,58.30
2017-09-04T14:15:31.444Z,57.60
2017-09-04T14:18:04.576Z,53.70
2017-09-04T14:20:32.157Z,51.70
2017-09-04T14:22:59.740Z,54.40
2017-09-04T14:25:27.322Z,54.40
2017-09-04T14:27:54.919Z,54.50
2017-09-04T14:30:22.489Z,50.60
2017-09-04T14:32:50.052Z,49.60
2017-09-04T14:35:17.645Z,54.30
2017-09-04T14:37:45.209Z,52.10
2017-09-04T14:40:16.783Z,49.60
2017-09-04T14:42:55.210Z,52.30
2017-09-04T14:45:26.501Z,51.30
2017-09-04T14:50:53.931Z,51.50
2017-09-04T14:53:21.508Z,54.50
2017-09-04T14:55:49.091Z,53.10
2017-09-04T14:58:16.684Z,52.30
2017-09-04T15:00:44.258Z,52.60
2017-09-04T15:03:11.838Z,52.20
2017-09-04T15:05:39.427Z,56.30
2017-09-04T15:08:07.049Z,55.90
2017-09-04T15:10:34.621Z,55.40
2017-09-04T15:13:02.228Z,51.70
2017-09-04T15:15:29.793Z,52.00
2017-09-04T15:17:57.354Z,51.90
2017-09-04T15:20:24.928Z,50.00
2017-09-04T15:22:52.501Z,47.10
2017-09-04T15:25:20.069Z,53.90
2017-09-04T15:27:47.678Z,48.70
2017-09-04T15:30:15.253Z,53.10
2017-09-04T15:32:42.825Z,52.70
2017-09-04T15:35:10.437Z,49.50
2017-09-04T15:37:38.026Z,49.60
2017-09-04T15:40:05.600Z,49.40
2017-09-04T15:42:33.216Z,52.80
2017-09-04T15:45:00.821Z,54.10
2017-09-04T15:47:28.396Z,52.80
2017-09-04T15:49:55.998Z,54.20
2017-09-04T15:52:23.556Z,52.00
2017-09-04T15:54:51.139Z,53.50
2017-09-04T15:57:18.743Z,54.30
2017-09-04T15:59:46.308Z,52.30
2017-09-04T16:02:13.884Z,49.10
2017-09-04T16:04:41.501Z,52.20
2017-09-04T16:07:11.023Z,50.80
2017-09-04T16:09:38.594Z,52.10
2017-09-04T16:12:08.839Z,53.00
2017-09-04T16:14:36.400Z,54.60
2017-09-04T16:17:20.709Z,54.50
2017-09-04T16:19:48.821Z,53.20
2017-09-04T16:25:20.190Z,55.40
2017-09-04T16:30:56.061Z,57.60
2017-09-04T16:33:28.205Z,56.70
2017-09-04T16:35:55.794Z,55.30
2017-09-04T16:38:35.159Z,53.30
2017-09-04T16:41:02.716Z,55.50
2017-09-04T16:43:30.297Z,54.60
2017-09-04T16:49:15.497Z,56.20
2017-09-04T16:51:58.709Z,55.70
2017-09-04T16:54:28.070Z,56.30
2017-09-04T16:56:56.404Z,57.90
2017-09-04T16:59:23.997Z,58.10
2017-09-04T17:01:51.571Z,59.30
2017-09-04T17:04:19.151Z,61.30
2017-09-04T17:06:46.760Z,61.30
2017-09-04T17:09:14.324Z,63.50
2017-09-04T17:14:42.329Z,64.10
2017-09-04T17:17:11.443Z,65.10
2017-09-04T17:23:01.450Z,65.80
2017-09-04T17:25:45.811Z,65.50
2017-09-04T17:28:13.513Z,65.30
2017-09-04T17:30:41.070Z,66.00
2017-09-04T17:33:08.654Z,65.10
2017-09-04T17:35:37.699Z,65.50
2017-09-04T17:38:06.064Z,65.70
2017-09-04T17:40:33.651Z,65.70
2017-09-04T17:43:01.243Z,65.60
2017-09-04T17:45:28.810Z,65.50
2017-09-04T17:47:56.470Z,65.80
2017-09-04T17:50:24.071Z,65.70
2017-09-04T17:52:51.640Z,65.40
2017-09-04T17:55:19.218Z,65.50
2017-09-04T17:57:46.817Z,65.20
2017-09-04T18:00:14.381Z,65.50
2017-09-04T18:02:41.946Z,65.50
2017-09-04T18:05:09.536Z,66.00
2017-09-04T18:07:37.094Z,66.90
2017-09-04T18:10:04.653Z,68.00
2017-09-04T18:12:32.224Z,67.60
2017-09-04T18:14:59.779Z,67.20
2017-09-04T18:17:27.347Z,66.90
2017-09-04T18:19:55.711Z,66.60
2017-09-04T18:22:23.277Z,66.60
2017-09-04T18:24:50.850Z,66.60
2017-09-04T18:27:18.429Z,66.40
2017-09-04T18:29:45.997Z,66.40
2017-09-04T18:32:13.555Z,66.60
2017-09-04T18:34:41.140Z,66.40
2017-09-04T18:37:08.713Z,66.60
2017-09-04T18:39:36.293Z,67.60
2017-09-04T18:42:03.894Z,70.50
2017-09-04T18:44:31.474Z,70.20
2017-09-04T18:46:59.058Z,70.60
2017-09-04T18:49:26.648Z,71.90
2017-09-04T18:51:54.225Z,70.80
2017-09-04T18:54:21.836Z,70.90
2017-09-04T18:56:49.447Z,71.50
2017-09-04T18:59:17.007Z,72.60
2017-09-04T19:01:46.632Z,72.50
2017-09-04T19:04:15.779Z,72.30
2017-09-04T19:06:44.535Z,71.40
2017-09-04T19:09:12.095Z,71.40
2017-09-04T19:11:39.694Z,71.30
2017-09-04T19:14:07.259Z,71.30
2017-09-04T19:16:34.949Z,71.80
2017-09-04T19:19:02.548Z,72.00
2017-09-04T19:21:30.091Z,71.70
2017-09-04T19:23:57.654Z,71.80
2017-09-04T19:26:25.243Z,71.60
2017-09-04T19:28:52.815Z,72.20
2017-09-04T19:31:20.385Z,72.20
2017-09-04T19:33:47.968Z,72.30
2017-09-04T19:36:15.547Z,72.50
2017-09-04T19:38:43.135Z,72.10
2017-09-04T19:41:10.719Z,72.40
2017-09-04T19:43:38.260Z,73.00
2017-09-04T19:46:05.809Z,72.90
2017-09-04T19:48:33.404Z,72.50
2017-09-04T19:51:00.963Z,72.80
2017-09-04T19:53:28.528Z,73.10
2017-09-04T19:55:56.135Z,73.40
2017-09-04T19:58:23.727Z,73.40
2017-09-04T20:00:51.298Z,74.30
2017-09-04T20:03:18.891Z,73.50
2017-09-04T20:05:46.469Z,73.40
2017-09-04T20:08:14.031Z,73.40
2017-09-04T20:10:41.643Z,74.00
2017-09-04T20:13:09.223Z,74.40
2017-09-04T20:15:36.816Z,74.90
2017-09-04T20:18:04.422Z,75.60
2017-09-04T20:20:31.988Z,75.70
2017-09-04T20:22:59.568Z,76.70
2017-09-04T20:25:27.186Z,76.70
2017-09-04T20:27:54.762Z,77.30
2017-09-04T20:30:22.312Z,76.70
2017-09-04T20:32:49.901Z,77.40
2017-09-04T20:35:17.443Z,77.60
2017-09-04T20:37:45.027Z,77.10
2017-09-04T20:40:12.625Z,77.40
2017-09-04T20:42:40.200Z,76.70
2017-09-04T20:45:07.750Z,76.30
2017-09-04T20:47:35.346Z,76.00
2017-09-04T20:50:02.925Z,76.30
2017-09-04T20:52:30.477Z,76.90
2017-09-04T20:54:58.113Z,76.50
2017-09-04T20:57:25.665Z,76.10
2017-09-04T20:59:53.245Z,76.00
2017-09-04T21:02:20.823Z,76.20
2017-09-04T21:04:48.410Z,76.20
2017-09-04T21:07:16.005Z,76.40
2017-09-04T21:09:43.569Z,76.80
2017-09-04T21:12:11.132Z,77.00
2017-09-04T21:14:41.592Z,77.70
2017-09-04T21:17:10.334Z,77.60
2017-09-04T21:19:37.939Z,77.50
2017-09-04T21:22:05.519Z,77.60
2017-09-04T21:24:33.110Z,78.50
2017-09-04T21:27:00.667Z,79.00
2017-09-04T21:29:28.275Z,78.50
2017-09-04T21:31:55.853Z,78.30
2017-09-04T21:34:23.467Z,79.30
2017-09-04T21:36:51.032Z,79.60
2017-09-04T21:39:18.607Z,79.50
2017-09-04T21:41:46.200Z,80.00
2017-09-04T21:44:13.790Z,80.30
2017-09-04T21:46:42.140Z,79.40
2017-09-04T21:49:09.695Z,79.30
2017-09-04T21:51:37.272Z,78.40
2017-09-04T21:54:04.835Z,78.80
2017-09-04T21:56:32.458Z,78.90
2017-09-04T21:59:00.004Z,80.20
2017-09-04T22:01:27.589Z,79.90
2017-09-04T22:03:55.202Z,80.30
2017-09-04T22:06:22.757Z,80.10
2017-09-04T22:08:50.341Z,80.90
2017-09-04T22:11:17.883Z,80.40
2017-09-04T22:13:45.464Z,81.00
2017-09-04T22:16:14.098Z,80.40
2017-09-04T22:18:41.657Z,81.10
2017-09-04T22:21:09.224Z,81.30
2017-09-04T22:23:36.806Z,80.20
2017-09-04T22:26:04.370Z,79.50
2017-09-04T22:28:31.931Z,78.20
2017-09-04T22:30:59.539Z,77.70
2017-09-04T22:33:27.107Z,77.60
2017-09-04T22:35:54.720Z,77.40
2017-09-04T22:38:22.289Z,76.80
2017-09-04T22:40:49.861Z,78.00
2017-09-04T22:43:19.715Z,78.20
2017-09-04T22:45:47.311Z,79.40
2017-09-04T22:48:14.879Z,81.10
2017-09-04T22:50:42.457Z,79.50
2017-09-04T22:53:10.049Z,78.80
2017-09-04T22:55:37.631Z,79.10
2017-09-04T22:58:05.705Z,81.00
2017-09-04T23:00:33.305Z,81.40
2017-09-04T23:03:00.901Z,82.10
2017-09-04T23:05:28.469Z,81.90
2017-09-04T23:07:56.065Z,82.00
2017-09-04T23:10:23.624Z,81.40
2017-09-04T23:12:51.216Z,82.70
2017-09-04T23:15:18.773Z,82.80
2017-09-04T23:17:46.334Z,82.90
2017-09-04T23:20:13.903Z,82.60
2017-09-04T23:22:41.475Z,83.20
2017-09-04T23:25:09.058Z,82.30
2017-09-04T23:27:36.621Z,81.80
2017-09-04T23:30:04.218Z,82.30
2017-09-04T23:32:31.803Z,82.20
2017-09-04T23:34:59.399Z,82.70
2017-09-04T23:37:26.974Z,83.20
2017-09-04T23:39:54.649Z,83.70
2017-09-04T23:42:22.227Z,83.20
2017-09-04T23:44:49.814Z,83.30
2017-09-04T23:47:17.407Z,82.80
2017-09-04T23:49:44.950Z,83.30
2017-09-04T23:52:12.544Z,83.40
2017-09-04T23:54:40.099Z,83.60
2017-09-04T23:57:07.722Z,84.30
2017-09-04T23:59:35.292Z,84.20
